This is the latest recevied weather packets stored in our database for station/object AB8KN-2. If no packets are shown the sender has not sent any weather packets the latest 10 day(s).
| Time | Temp. | Humidity | Pressure | Rain* | Wind** | Luminosity | Snow |
|---|---|---|---|---|---|---|---|
| 1777290618 | 10° C | 84% | 1018.5 hPa | 0 mm | - | 54 W/m² | - |
| 1777284017 | 8.33° C | 91% | 1018.3 hPa | 0 mm | - | 0 W/m² | - |
| 1777282837 | 8.33° C | 90% | 1018.3 hPa | 0 mm | - | 0 W/m² | - |
| 1777275616 | 9.44° C | 86% | 1017.7 hPa | 0 mm | - | 0 W/m² | - |
| 1777273237 | 9.44° C | 87% | 1017.9 hPa | 0 mm | - | 0 W/m² | - |
| 1777271417 | 8.33° C | 96% | 1018.1 hPa | 0 mm | - | 0 W/m² | - |
| 1777265436 | 8.33° C | 94% | 1018.4 hPa | 0 mm | - | 0 W/m² | - |
| 1777264816 | 8.89° C | 94% | 1018.4 hPa | 0 mm | - | 0 W/m² | - |
| 1777263057 | 8.89° C | 93% | 1018.3 hPa | 0 mm | - | 0 W/m² | - |
| 1777261217 | 9.44° C | 93% | 1018.5 hPa | 0 mm | - | 0 W/m² | - |
| 1777257638 | 10° C | 90% | 1018.6 hPa | 0 mm | - | 0 W/m² | - |
| 1777255236 | 10.56° C | 87% | 1018.4 hPa | 0 mm | - | 0 W/m² | - |
| 1777254615 | 10.56° C | 86% | 1018.2 hPa | 0 mm | - | 0 W/m² | - |
| 1777253416 | 11.11° C | 85% | 1017.9 hPa | 0 mm | - | 0 W/m² | - |
| 1777252816 | 11.67° C | 83% | 1017.7 hPa | 0 mm | - | 0 W/m² | - |
| 1777246818 | 15° C | 70% | 1017.9 hPa | 0 mm | - | 28 W/m² | - |
| 1777241417 | 16.67° C | 66% | 1017.9 hPa | 0 mm | - | 80 W/m² | - |
| 1777233016 | 17.22° C | 63% | 1018.7 hPa | 0 mm | - | 765 W/m² | - |
| 1777231816 | 16.67° C | 65% | 1019 hPa | 0 mm | - | 813 W/m² | - |
| 1777225818 | 13.89° C | 72% | 1019.9 hPa | 0 mm | - | 522 W/m² | - |
| 1777224638 | 12.78° C | 74% | 1019.6 hPa | 0 mm | - | 305 W/m² | - |
| 1777222216 | 12.22° C | 75% | 1019.9 hPa | 0 mm | - | 277 W/m² | - |
| 1777221036 | 11.67° C | 77% | 1019.8 hPa | 0 mm | - | 237 W/m² | - |
| 1777212616 | 9.44° C | 84% | 1018.7 hPa | 0 mm | - | 147 W/m² | - |
| 1777210816 | 8.89° C | 85% | 1018.7 hPa | 0 mm | - | 96 W/m² | - |
* Rain latest hour (hover to see other rain measurements)
** Current wind speed in m/s (hover to see current wind gust speed)